createdAt,value
2018-03-07T00:00:20.378Z,95855.98
2018-03-07T00:02:49.115Z,95857.62
2018-03-07T00:05:19.234Z,95861.92
2018-03-07T00:07:48.119Z,95859.34
2018-03-07T00:10:23.236Z,95863.52
2018-03-07T00:12:52.074Z,95867.59
2018-03-07T00:15:21.461Z,95865.13
2018-03-07T00:17:50.403Z,95866.38
2018-03-07T00:20:19.402Z,95872.44
2018-03-07T00:22:48.376Z,95873.50
2018-03-07T00:25:17.714Z,95872.91
2018-03-07T00:27:47.481Z,95875.32
2018-03-07T00:30:16.792Z,95879.44
2018-03-07T00:32:45.774Z,95883.61
2018-03-07T00:35:14.592Z,95879.30
2018-03-07T00:37:43.377Z,95879.16
2018-03-07T00:40:13.872Z,95880.92
2018-03-07T00:42:43.836Z,95879.53
2018-03-07T00:48:06.714Z,95878.51
2018-03-07T00:50:36.936Z,95876.63
2018-03-07T00:53:05.771Z,95881.55
2018-03-07T00:55:36.198Z,95883.47
2018-03-07T00:58:05.758Z,95881.41
2018-03-07T01:00:34.623Z,95889.28
2018-03-07T01:03:03.722Z,95883.69
2018-03-07T01:05:34.267Z,95880.30
2018-03-07T01:08:04.547Z,95884.10
2018-03-07T01:10:33.973Z,95877.27
2018-03-07T01:13:03.464Z,95878.30
2018-03-07T01:15:32.295Z,95876.52
2018-03-07T01:18:03.754Z,95878.53
2018-03-07T01:20:32.997Z,95873.84
2018-03-07T01:23:02.333Z,95872.63
2018-03-07T01:25:31.436Z,95881.91
2018-03-07T01:28:00.350Z,95876.08
2018-03-07T01:30:29.746Z,95876.78
2018-03-07T01:32:59.998Z,95870.34
2018-03-07T01:35:28.931Z,95873.98
2018-03-07T01:37:57.750Z,95871.23
2018-03-07T01:40:26.537Z,95869.61
2018-03-07T01:42:55.356Z,95868.80
2018-03-07T01:45:24.151Z,95873.22
2018-03-07T01:47:52.921Z,95869.21
2018-03-07T01:50:21.715Z,95870.97
2018-03-07T01:52:50.520Z,95877.32
2018-03-07T01:55:19.327Z,95872.34
2018-03-07T01:57:48.338Z,95866.52
2018-03-07T02:00:17.078Z,95867.63
2018-03-07T02:02:45.858Z,95873.64
2018-03-07T02:05:14.727Z,95874.14
2018-03-07T02:07:45.846Z,95878.40
2018-03-07T02:10:14.642Z,95870.73
2018-03-07T02:12:43.455Z,95872.59
2018-03-07T02:15:14.798Z,95871.09
2018-03-07T02:17:43.601Z,95870.31
2018-03-07T02:20:12.505Z,95869.80
2018-03-07T02:22:41.337Z,95878.89
2018-03-07T02:25:10.136Z,95882.92
2018-03-07T02:30:11.159Z,95884.49
2018-03-07T02:32:39.994Z,95884.59
2018-03-07T02:35:09.499Z,95891.28
2018-03-07T02:37:38.631Z,95890.36
2018-03-07T02:40:08.196Z,95892.65
2018-03-07T02:42:36.970Z,95885.77
2018-03-07T02:45:06.712Z,95883.80
2018-03-07T02:47:36.134Z,95883.84
2018-03-07T02:50:05.039Z,95893.59
2018-03-07T04:07:48.358Z,95899.11
2018-03-07T04:10:17.255Z,95903.30
2018-03-07T04:12:46.075Z,95899.87
2018-03-07T04:15:16.131Z,95908.72
2018-03-07T04:17:45.305Z,95915.49
2018-03-07T04:20:14.578Z,95919.91
2018-03-07T04:22:43.378Z,95914.49
2018-03-07T04:25:12.312Z,95913.72
2018-03-07T04:27:41.238Z,95918.47
2018-03-07T04:30:11.008Z,95915.99
2018-03-07T04:32:40.151Z,95922.22
2018-03-07T04:35:10.924Z,95920.39
2018-03-07T04:37:40.500Z,95929.31
2018-03-07T04:40:09.888Z,95924.69
2018-03-07T04:42:39.159Z,95931.28
2018-03-07T04:45:09.627Z,95936.79
2018-03-07T04:47:38.556Z,95937.27
2018-03-07T04:50:08.104Z,95939.06
2018-03-07T04:54:18.202Z,95934.48
2018-03-07T04:56:46.995Z,95941.62
2018-03-07T04:59:15.950Z,95945.22
2018-03-07T05:01:46.443Z,95949.22
2018-03-07T05:04:15.244Z,95949.53
2018-03-07T05:06:44.109Z,95950.23
2018-03-07T05:09:12.932Z,95942.16
2018-03-07T05:11:43.111Z,95944.90
2018-03-07T05:14:12.060Z,95944.24
2018-03-07T05:16:41.139Z,95948.02
2018-03-07T05:19:09.946Z,95945.62
2018-03-07T05:21:39.113Z,95949.03
2018-03-07T05:24:08.031Z,95953.84
2018-03-07T05:26:36.998Z,95954.94
2018-03-07T05:29:06.673Z,95949.58
2018-03-07T05:31:41.708Z,95955.70
2018-03-07T05:34:10.600Z,95955.28
2018-03-07T05:36:39.504Z,95956.16
2018-03-07T05:39:08.403Z,95960.91
2018-03-07T05:41:37.463Z,95968.67
2018-03-07T05:44:06.332Z,95970.69
2018-03-07T05:46:35.162Z,95961.31
2018-03-07T05:49:04.077Z,95975.11
2018-03-07T05:51:32.898Z,95971.91
2018-03-07T05:54:01.791Z,95968.42
2018-03-07T05:56:30.818Z,95970.80
2018-03-07T05:58:59.951Z,95977.22
2018-03-07T06:01:28.873Z,95979.19
2018-03-07T06:03:57.805Z,95987.48
2018-03-07T06:06:26.861Z,95987.06
2018-03-07T06:08:55.779Z,95986.70
2018-03-07T06:11:24.658Z,95986.19
2018-03-07T06:13:53.523Z,95992.61
2018-03-07T06:16:22.658Z,96000.07
2018-03-07T06:18:51.495Z,95997.70
2018-03-07T06:21:20.442Z,95999.77
2018-03-07T06:23:49.287Z,96009.41
2018-03-07T06:26:19.002Z,96007.81
2018-03-07T06:28:47.887Z,96018.66
2018-03-07T06:31:16.675Z,96019.41
2018-03-07T06:33:48.516Z,96023.93
2018-03-07T06:36:17.677Z,96029.34
2018-03-07T06:38:55.633Z,96036.41
2018-03-07T06:41:31.165Z,96027.62
2018-03-07T06:46:46.333Z,96031.16
2018-03-07T06:50:21.721Z,96033.34
2018-03-07T06:52:51.590Z,96044.09
2018-03-07T06:55:20.625Z,96037.07
2018-03-07T06:57:50.384Z,96047.83
2018-03-07T07:00:19.395Z,96057.19
2018-03-07T07:02:49.197Z,96061.27
2018-03-07T07:05:18.245Z,96067.16
2018-03-07T07:07:47.653Z,96066.62
2018-03-07T07:10:16.771Z,96072.73
2018-03-07T07:12:45.715Z,96084.08
2018-03-07T07:15:14.477Z,96095.48
2018-03-07T07:17:43.601Z,96098.48
2018-03-07T07:20:12.594Z,96100.45
2018-03-07T07:22:41.439Z,96100.42
2018-03-07T07:25:10.591Z,96104.47
2018-03-07T07:27:39.542Z,96103.97
2018-03-07T07:30:09.293Z,96109.91
2018-03-07T07:32:38.316Z,96110.98
2018-03-07T07:35:07.889Z,96108.47
2018-03-07T07:37:36.748Z,96113.63
2018-03-07T07:40:06.444Z,96108.58
2018-03-07T07:42:35.688Z,96113.77
2018-03-07T07:45:04.776Z,96121.97
2018-03-07T07:47:33.677Z,96129.37
2018-03-07T07:50:02.593Z,96125.64
2018-03-07T07:52:32.799Z,96127.48
2018-03-07T07:55:01.630Z,96126.19
2018-03-07T07:57:30.436Z,96131.28
2018-03-07T07:59:59.577Z,96130.23
2018-03-07T08:02:28.380Z,96126.66
2018-03-07T08:04:57.319Z,96141.25
2018-03-07T08:07:26.750Z,96139.53
2018-03-07T08:09:55.977Z,96149.92
2018-03-07T08:12:25.525Z,96148.59
2018-03-07T08:14:54.536Z,96157.27
2018-03-07T08:17:23.445Z,96160.14
2018-03-07T08:19:52.830Z,96160.10
2018-03-07T08:22:22.500Z,96160.84
2018-03-07T08:24:52.852Z,96164.20
2018-03-07T08:27:21.713Z,96169.33
2018-03-07T08:29:50.570Z,96172.01
2018-03-07T08:32:19.384Z,96174.05
2018-03-07T08:34:48.561Z,96183.20
2018-03-07T08:37:17.418Z,96179.00
2018-03-07T08:39:46.266Z,96183.55
2018-03-07T08:42:15.145Z,96184.63
2018-03-07T08:44:44.300Z,96178.45
2018-03-07T08:47:13.220Z,96184.13
2018-03-07T08:49:42.188Z,96181.00
2018-03-07T08:52:11.018Z,96183.94
2018-03-07T08:54:40.182Z,96188.50
2018-03-07T08:57:08.997Z,96183.00
2018-03-07T08:59:37.824Z,96186.66
2018-03-07T09:02:06.824Z,96195.41
2018-03-07T09:04:35.652Z,96204.47
2018-03-07T09:07:04.473Z,96204.79
2018-03-07T09:09:33.349Z,96202.66
2018-03-07T09:12:02.250Z,96203.89
2018-03-07T09:14:31.168Z,96218.47
2018-03-07T09:17:01.850Z,96215.41
2018-03-07T09:19:30.740Z,96216.06
2018-03-07T09:21:59.598Z,96222.95
2018-03-07T09:24:28.545Z,96223.22
2018-03-07T09:26:57.398Z,96222.26
2018-03-07T09:29:26.283Z,96221.55
2018-03-07T09:31:55.517Z,96226.73
2018-03-07T09:34:24.317Z,96226.84
2018-03-07T09:36:53.151Z,96230.94
2018-03-07T09:39:22.115Z,96239.62
2018-03-07T09:41:51.319Z,96238.13
2018-03-07T09:44:20.211Z,96244.13
2018-03-07T09:46:49.121Z,96246.97
2018-03-07T09:49:17.998Z,96251.98
2018-03-07T09:51:47.064Z,96258.00
2018-03-07T09:54:15.905Z,96255.78
2018-03-07T09:56:45.529Z,96262.30
2018-03-07T09:59:14.418Z,96263.73
2018-03-07T10:01:43.536Z,96272.69
2018-03-07T10:04:12.567Z,96277.42
2018-03-07T10:06:41.445Z,96281.73
2018-03-07T10:09:10.687Z,96278.22
2018-03-07T10:11:41.313Z,96284.48
2018-03-07T10:14:10.205Z,96279.41
2018-03-07T10:16:39.229Z,96276.06
2018-03-07T10:19:08.998Z,96276.91
2018-03-07T10:21:38.798Z,96277.51
2018-03-07T10:24:07.691Z,96282.19
2018-03-07T10:26:36.833Z,96276.63
2018-03-07T10:29:05.715Z,96284.02
2018-03-07T10:31:34.608Z,96274.98
2018-03-07T10:34:03.411Z,96274.53
2018-03-07T10:36:33.784Z,96284.45
2018-03-07T10:39:03.004Z,96272.70
2018-03-07T10:41:32.177Z,96280.47
2018-03-07T10:44:01.006Z,96279.13
2018-03-07T10:46:31.380Z,96282.80
2018-03-07T10:49:00.599Z,96301.00
2018-03-07T10:51:29.380Z,96290.97
2018-03-07T10:53:58.244Z,96301.11
2018-03-07T10:56:28.278Z,96282.55
2018-03-07T10:58:57.028Z,96307.13
2018-03-07T11:01:26.035Z,96298.63
2018-03-07T11:03:54.943Z,96300.44
2018-03-07T11:06:24.124Z,96301.89
2018-03-07T11:08:52.970Z,96299.61
2018-03-07T11:11:22.420Z,96305.05
2018-03-07T11:13:51.306Z,96305.48
2018-03-07T11:16:20.242Z,96302.39
2018-03-07T11:18:49.079Z,96301.76
2018-03-07T11:21:18.023Z,96306.76
2018-03-07T11:23:49.332Z,96304.77
2018-03-07T11:26:18.155Z,96302.52
2018-03-07T11:28:48.957Z,96317.21
2018-03-07T11:31:18.066Z,96317.55
2018-03-07T11:33:46.956Z,96313.16
2018-03-07T11:36:15.767Z,96320.88
2018-03-07T11:38:44.725Z,96323.53
2018-03-07T11:41:13.638Z,96323.19
2018-03-07T11:43:42.984Z,96326.69
2018-03-07T11:46:12.800Z,96318.35
2018-03-07T11:48:41.592Z,96318.14
2018-03-07T11:51:10.388Z,96324.34
2018-03-07T11:53:39.331Z,96316.23
2018-03-07T11:56:08.158Z,96324.34
2018-03-07T11:58:36.748Z,96328.34
2018-03-07T12:01:05.293Z,96333.30
2018-03-07T12:03:34.306Z,96321.42
2018-03-07T12:06:02.850Z,96314.89
2018-03-07T12:08:32.325Z,96324.51
2018-03-07T12:11:01.194Z,96320.12
2018-03-07T12:13:29.876Z,96315.03
2018-03-07T12:15:59.047Z,96313.52
2018-03-07T12:18:29.295Z,96324.79
2018-03-07T12:20:57.856Z,96308.82
2018-03-07T12:23:26.508Z,96310.35
2018-03-07T12:25:55.095Z,96317.25
2018-03-07T12:28:26.400Z,96313.24
2018-03-07T12:30:54.951Z,96311.86
2018-03-07T12:33:23.502Z,96313.84
2018-03-07T12:35:52.105Z,96315.50
2018-03-07T12:38:20.910Z,96310.67
2018-03-07T12:40:52.749Z,96315.80
2018-03-07T12:43:21.387Z,96314.48
2018-03-07T12:45:50.047Z,96308.62
2018-03-07T12:48:18.624Z,96307.43
2018-03-07T12:50:48.469Z,96318.42
2018-03-07T12:53:17.119Z,96319.75
2018-03-07T12:55:45.759Z,96305.73
2018-03-07T12:58:14.308Z,96312.67
2018-03-07T13:00:44.360Z,96317.44
2018-03-07T13:03:13.562Z,96331.31
2018-03-07T13:05:44.130Z,96325.80
2018-03-07T13:08:12.799Z,96337.23
2018-03-07T13:10:41.689Z,96332.42
2018-03-07T13:13:10.272Z,96355.51
2018-03-07T13:15:38.902Z,96347.14
2018-03-07T13:18:07.953Z,96349.36
2018-03-07T13:20:36.859Z,96353.54
2018-03-07T13:23:05.496Z,96356.00
2018-03-07T13:25:36.559Z,96368.80
2018-03-07T13:28:05.300Z,96357.70
2018-03-07T13:30:34.098Z,96356.41
2018-03-07T13:33:04.398Z,96353.86
2018-03-07T13:35:33.139Z,96357.23
2018-03-07T13:38:01.766Z,96350.52
2018-03-07T13:40:30.510Z,96351.61
2018-03-07T13:43:00.896Z,96345.53
2018-03-07T13:45:30.118Z,96350.46
2018-03-07T13:47:58.668Z,96349.75
2018-03-07T13:50:28.441Z,96344.28
2018-03-07T13:52:57.278Z,96343.32
2018-03-07T13:55:26.677Z,96339.94
2018-03-07T13:57:55.340Z,96348.08
2018-03-07T14:00:24.341Z,96343.75
2018-03-07T14:02:53.918Z,96347.11
2018-03-07T14:05:22.465Z,96341.32
2018-03-07T14:07:52.211Z,96339.80
2018-03-07T14:10:25.429Z,96336.92
2018-03-07T14:12:54.216Z,96335.21
2018-03-07T14:15:23.052Z,96349.99
2018-03-07T14:17:51.653Z,96344.98
2018-03-07T14:20:20.284Z,96346.52
2018-03-07T14:22:48.860Z,96352.36
2018-03-07T14:25:17.513Z,96346.67
2018-03-07T14:27:47.090Z,96340.42
2018-03-07T14:30:15.516Z,96353.25
2018-03-07T14:32:46.170Z,96345.36
2018-03-07T14:35:14.765Z,96343.33
2018-03-07T14:37:43.367Z,96343.37
2018-03-07T14:40:12.454Z,96343.91
2018-03-07T14:42:42.220Z,96349.23
2018-03-07T14:45:11.114Z,96348.06
2018-03-07T14:47:40.986Z,96350.78
2018-03-07T14:50:09.768Z,96347.32
2018-03-07T14:52:38.487Z,96341.20
2018-03-07T14:55:08.808Z,96338.47
2018-03-07T14:57:38.439Z,96339.55
2018-03-07T15:00:08.067Z,96339.88
2018-03-07T15:02:37.359Z,96332.72
2018-03-07T15:05:07.009Z,96336.69
2018-03-07T15:07:35.608Z,96337.41
2018-03-07T15:10:04.851Z,96342.78
2018-03-07T15:12:33.478Z,96333.54
2018-03-07T15:15:02.119Z,96333.52
2018-03-07T15:17:30.828Z,96335.06
2018-03-07T15:20:07.097Z,96342.98
2018-03-07T15:22:35.957Z,96344.84
2018-03-07T15:25:05.563Z,96346.12
2018-03-07T15:27:34.323Z,96348.89
2018-03-07T15:30:03.123Z,96347.70
2018-03-07T15:32:33.076Z,96355.61
2018-03-07T15:35:01.784Z,96349.16
2018-03-07T15:37:30.479Z,96352.63
2018-03-07T15:40:00.085Z,96355.71
2018-03-07T15:42:28.609Z,96356.95
2018-03-07T15:44:57.136Z,96365.09
2018-03-07T15:47:25.680Z,96354.22
2018-03-07T15:49:54.560Z,96359.25
2018-03-07T15:52:23.148Z,96369.47
2018-03-07T15:54:51.734Z,96367.77
2018-03-07T15:57:22.171Z,96364.18
2018-03-07T15:59:51.981Z,96373.14
2018-03-07T16:02:20.964Z,96377.98
2018-03-07T16:04:49.535Z,96379.23
2018-03-07T16:07:20.072Z,96383.97
2018-03-07T16:09:48.850Z,96380.94
2018-03-07T16:12:18.276Z,96389.44
2018-03-07T16:14:47.432Z,96395.16
2018-03-07T16:17:16.068Z,96396.24
2018-03-07T16:19:45.705Z,96410.87
2018-03-07T16:22:14.330Z,96421.26
2018-03-07T16:24:43.939Z,96422.95
2018-03-07T16:27:12.956Z,96430.06
2018-03-07T16:29:41.614Z,96448.48
2018-03-07T16:32:10.409Z,96458.19
2018-03-07T16:34:38.995Z,96450.98
2018-03-07T16:37:08.012Z,96449.50
2018-03-07T16:39:36.709Z,96448.87
2018-03-07T16:42:05.492Z,96445.67
2018-03-07T16:44:34.153Z,96445.63
2018-03-07T16:47:02.852Z,96444.16
2018-03-07T16:49:32.704Z,96446.66
2018-03-07T16:52:01.626Z,96442.45
2018-03-07T16:54:30.585Z,96449.71
2018-03-07T16:56:59.197Z,96445.98
2018-03-07T16:59:28.402Z,96454.30
2018-03-07T17:01:58.112Z,96454.50
2018-03-07T17:04:33.565Z,96458.47
2018-03-07T17:07:02.180Z,96461.52
2018-03-07T17:09:30.978Z,96457.02
2018-03-07T17:11:59.882Z,96465.65
2018-03-07T17:14:28.792Z,96467.37
2018-03-07T17:16:58.267Z,96477.03
2018-03-07T17:19:26.944Z,96479.80
2018-03-07T17:21:55.688Z,96482.26
2018-03-07T17:24:25.103Z,96487.80
2018-03-07T17:26:54.232Z,96497.80
2018-03-07T17:29:24.819Z,96502.97
2018-03-07T17:31:55.047Z,96502.58
2018-03-07T17:34:33.213Z,96507.38
2018-03-07T17:37:03.077Z,96508.71
2018-03-07T17:39:36.771Z,96508.02
2018-03-07T17:42:07.777Z,96511.72
2018-03-07T17:44:38.582Z,96525.80
2018-03-07T17:47:07.536Z,96534.89
2018-03-07T17:49:36.220Z,96529.69
2018-03-07T17:52:06.036Z,96541.33
2018-03-07T17:54:35.645Z,96543.14
2018-03-07T17:57:08.167Z,96541.98
2018-03-07T17:59:36.914Z,96555.65
2018-03-07T18:02:07.247Z,96553.14
2018-03-07T18:04:36.777Z,96562.70
2018-03-07T18:07:06.370Z,96568.22
2018-03-07T18:09:35.447Z,96580.58
2018-03-07T18:12:06.151Z,96572.66
2018-03-07T18:14:37.533Z,96582.14
2018-03-07T18:17:11.029Z,96587.18
2018-03-07T18:19:39.773Z,96583.64
2018-03-07T18:22:08.790Z,96585.94
2018-03-07T18:24:38.929Z,96584.92
2018-03-07T18:27:08.511Z,96586.14
2018-03-07T18:29:38.089Z,96585.72
2018-03-07T18:32:07.050Z,96592.23
2018-03-07T18:34:35.881Z,96596.83
2018-03-07T18:37:06.301Z,96597.80
2018-03-07T18:39:35.447Z,96601.73
2018-03-07T18:42:06.426Z,96608.03
2018-03-07T18:44:35.196Z,96607.29
2018-03-07T18:47:05.361Z,96620.78
2018-03-07T18:49:34.152Z,96620.99
2018-03-07T18:52:02.772Z,96623.13
2018-03-07T18:54:31.544Z,96619.02
2018-03-07T18:57:01.125Z,96620.74
2018-03-07T18:59:31.933Z,96620.86
2018-03-07T19:02:03.204Z,96629.34
2018-03-07T19:04:35.256Z,96630.88
2018-03-07T19:07:06.372Z,96636.37
2018-03-07T19:09:35.371Z,96639.14
2018-03-07T19:12:06.436Z,96641.39
2018-03-07T19:14:35.143Z,96636.59
2018-03-07T19:17:04.880Z,96639.16
2018-03-07T19:19:33.869Z,96632.30
2018-03-07T19:22:07.259Z,96640.61
2018-03-07T19:27:16.964Z,96642.85
2018-03-07T19:29:45.632Z,96642.67
2018-03-07T19:32:15.173Z,96645.63
2018-03-07T19:37:13.898Z,96646.31
2018-03-07T19:39:44.128Z,96649.32
2018-03-07T19:42:13.984Z,96647.84
2018-03-07T19:44:43.394Z,96651.88
2018-03-07T19:47:14.194Z,96651.77
2018-03-07T19:49:43.889Z,96656.67
2018-03-07T19:52:13.362Z,96654.39
2018-03-07T19:54:52.416Z,96658.01
2018-03-07T19:57:21.360Z,96673.88
2018-03-07T19:59:50.011Z,96677.69
2018-03-07T20:02:19.162Z,96678.09
2018-03-07T20:04:50.706Z,96686.68
2018-03-07T20:07:19.649Z,96683.48
2018-03-07T20:09:50.616Z,96688.37
2018-03-07T20:12:21.462Z,96685.52
2018-03-07T20:14:50.737Z,96684.66
2018-03-07T20:17:20.141Z,96685.89
2018-03-07T20:19:49.518Z,96685.45
2018-03-07T20:22:19.612Z,96675.58
2018-03-07T20:24:48.427Z,96690.10
2018-03-07T20:27:17.354Z,96701.67
2018-03-07T20:29:48.063Z,96711.62
2018-03-07T20:32:16.809Z,96713.30
2018-03-07T20:34:45.473Z,96719.02
2018-03-07T20:37:19.353Z,96720.09
2018-03-07T20:39:48.268Z,96725.91
2018-03-07T20:42:17.140Z,96728.90
2018-03-07T20:44:46.779Z,96729.44
2018-03-07T20:47:20.899Z,96739.60
2018-03-07T20:49:50.573Z,96738.35
2018-03-07T20:52:20.105Z,96747.55
2018-03-07T20:54:48.695Z,96747.84
2018-03-07T20:57:17.647Z,96748.98
2018-03-07T20:59:48.456Z,96759.05
2018-03-07T21:02:17.632Z,96760.84
2018-03-07T21:04:48.732Z,96773.56
2018-03-07T21:07:17.668Z,96777.38
2018-03-07T21:09:48.350Z,96786.33
2018-03-07T21:12:18.295Z,96789.53
2018-03-07T21:14:47.348Z,96786.63
2018-03-07T21:17:15.941Z,96781.80
2018-03-07T21:19:45.089Z,96785.67
2018-03-07T21:22:13.612Z,96786.13
2018-03-07T21:24:42.170Z,96792.72
2018-03-07T21:27:11.060Z,96789.91
2018-03-07T21:29:40.296Z,96795.84
2018-03-07T21:32:09.070Z,96792.89
2018-03-07T21:34:37.766Z,96797.95
2018-03-07T21:37:07.676Z,96795.48
2018-03-07T21:39:37.716Z,96792.34
2018-03-07T21:42:06.230Z,96795.66
2018-03-07T21:44:34.871Z,96798.42
2018-03-07T21:47:03.641Z,96807.09
2018-03-07T21:49:32.212Z,96806.49
2018-03-07T21:52:00.913Z,96804.39
2018-03-07T21:54:29.722Z,96811.15
2018-03-07T21:56:58.258Z,96818.94
2018-03-07T21:59:26.871Z,96816.30
2018-03-07T22:01:55.499Z,96824.20
2018-03-07T22:04:25.331Z,96827.02
2018-03-07T22:06:54.834Z,96830.77
2018-03-07T22:09:24.225Z,96827.09
2018-03-07T22:11:52.756Z,96838.53
2018-03-07T22:14:21.397Z,96836.66
2018-03-07T22:16:49.996Z,96838.78
2018-03-07T22:19:18.816Z,96838.17
2018-03-07T22:21:47.986Z,96834.36
2018-03-07T22:24:16.689Z,96831.14
2018-03-07T22:26:45.242Z,96843.33
2018-03-07T22:29:13.856Z,96835.30
2018-03-07T22:31:42.401Z,96842.97
2018-03-07T22:34:15.026Z,96850.95
2018-03-07T22:36:43.654Z,96854.36
2018-03-07T22:39:12.301Z,96857.38
2018-03-07T22:41:41.925Z,96859.52
2018-03-07T22:44:10.511Z,96860.75
2018-03-07T22:46:39.184Z,96867.87
2018-03-07T22:49:15.935Z,96872.45
2018-03-07T22:51:44.684Z,96870.66
2018-03-07T22:54:13.565Z,96872.81
2018-03-07T22:56:42.215Z,96880.59
2018-03-07T22:59:11.984Z,96878.68
2018-03-07T23:01:40.740Z,96890.55
2018-03-07T23:04:09.412Z,96884.59
2018-03-07T23:06:37.978Z,96894.78
2018-03-07T23:09:07.197Z,96906.18
2018-03-07T23:11:35.737Z,96907.03
2018-03-07T23:14:04.794Z,96906.30
2018-03-07T23:16:33.670Z,96907.59
2018-03-07T23:19:02.704Z,96912.52
2018-03-07T23:21:31.967Z,96916.87
2018-03-07T23:24:01.999Z,96911.36
2018-03-07T23:26:31.650Z,96908.96
2018-03-07T23:29:00.593Z,96909.60
2018-03-07T23:31:29.257Z,96916.82
2018-03-07T23:33:57.984Z,96917.26
2018-03-07T23:36:26.625Z,96921.34
2018-03-07T23:38:55.665Z,96918.69
2018-03-07T23:41:25.987Z,96918.78
2018-03-07T23:43:54.548Z,96920.31
2018-03-07T23:46:23.096Z,96930.91
2018-03-07T23:48:51.589Z,96932.95
2018-03-07T23:51:20.536Z,96944.36
2018-03-07T23:53:49.193Z,96948.67
2018-03-07T23:56:17.979Z,96948.91
2018-03-07T23:58:46.604Z,96948.23
